Time;durP1;ratioP1;P1;durP2;ratioP2;P2;SDS_P1;SDS_P2;PMS_P1;PMS_P2;Temp;Humidity;BMP_temperature;BMP_pressure;BME280_temperature;BME280_humidity;BME280_pressure;Samples;Min_cycle;Max_cycle;Signal;HPM_P1;HPM_P2
2023/08/26 00:01:30;;;;;;;6.57;3.63;;;16.50;86.70;;;;;;5079538;28;20122;-83
2023/08/26 00:03:56;;;;;;;5.90;3.95;;;16.40;86.70;;;;;;5098247;28;20755;-82
2023/08/26 00:06:21;;;;;;;6.05;3.38;;;16.40;86.70;;;;;;5076233;28;20083;-82
2023/08/26 00:08:47;;;;;;;6.68;3.45;;;16.40;86.50;;;;;;5075954;28;20369;-84
2023/08/26 00:11:13;;;;;;;4.28;3.10;;;16.40;86.30;;;;;;5059458;28;20039;-82
2023/08/26 00:13:38;;;;;;;4.53;3.30;;;16.40;86.50;;;;;;5059150;28;20460;-84
2023/08/26 00:16:04;;;;;;;9.02;3.30;;;16.30;86.40;;;;;;5059400;28;20043;-82
2023/08/26 00:18:31;;;;;;;6.43;2.78;;;16.30;86.40;;;;;;5082322;28;20629;-82
2023/08/26 00:20:57;;;;;;;5.28;3.00;;;16.30;86.20;;;;;;5095373;28;20044;-84
2023/08/26 00:23:23;;;;;;;4.82;2.95;;;16.20;86.10;;;;;;5062881;28;20036;-81
2023/08/26 00:25:49;;;;;;;3.60;2.75;;;16.20;86.10;;;;;;5095905;28;20126;-82
2023/08/26 00:28:15;;;;;;;5.97;3.10;;;16.20;86.10;;;;;;5078892;28;20047;-82
2023/08/26 00:30:41;;;;;;;5.30;3.47;;;16.20;85.90;;;;;;5078894;28;20039;-83
2023/08/26 00:33:07;;;;;;;4.97;3.15;;;16.10;86.00;;;;;;5095708;28;20040;-84
2023/08/26 00:35:33;;;;;;;8.23;3.40;;;16.10;86.00;;;;;;5091379;28;20131;-83
2023/08/26 00:37:58;;;;;;;7.05;2.97;;;16.00;85.90;;;;;;5092337;28;20044;-83
2023/08/26 00:40:24;;;;;;;3.83;3.03;;;16.00;85.90;;;;;;5058778;28;20098;-82
2023/08/26 00:42:54;;;;;;;4.95;2.97;;;16.00;85.90;;;;;;5058634;28;20067;-81
2023/08/26 00:45:20;;;;;;;6.03;2.70;;;16.00;85.70;;;;;;5075260;28;20122;-83
2023/08/26 00:47:46;;;;;;;6.70;2.80;;;15.90;85.70;;;;;;5058552;28;20122;-83
2023/08/26 00:50:12;;;;;;;5.15;2.85;;;15.90;85.80;;;;;;5041936;28;20143;-83
2023/08/26 00:52:38;;;;;;;4.72;2.70;;;15.80;85.80;;;;;;5087881;28;20161;-82
2023/08/26 00:55:07;;;;;;;7.10;3.15;;;15.80;85.80;;;;;;5091899;28;20040;-83
2023/08/26 00:57:33;;;;;;;4.47;2.92;;;15.70;85.80;;;;;;5058529;28;20032;-83
2023/08/26 00:59:59;;;;;;;6.07;2.97;;;15.70;85.90;;;;;;5074588;28;20136;-83
2023/08/26 01:02:24;;;;;;;8.30;2.78;;;15.70;85.80;;;;;;5058583;28;20035;-83
2023/08/26 01:04:50;;;;;;;8.13;3.67;;;15.60;85.80;;;;;;5058345;28;20073;-81
2023/08/26 01:07:16;;;;;;;5.72;3.38;;;15.50;85.90;;;;;;5092053;28;20032;-83
2023/08/26 01:09:42;;;;;;;6.45;3.58;;;15.50;86.00;;;;;;5058527;28;20499;-83
2023/08/26 01:12:31;;;;;;;5.25;3.28;;;15.50;86.10;;;;;;5074845;28;20399;-83
2023/08/26 01:15:09;;;;;;;4.20;3.50;;;15.50;86.30;;;;;;5095491;28;20032;-82
2023/08/26 01:17:35;;;;;;;3.92;3.25;;;15.40;86.50;;;;;;5112059;28;20059;-82
2023/08/26 01:20:05;;;;;;;5.30;3.85;;;15.40;86.60;;;;;;5112022;28;20119;-83
2023/08/26 01:22:33;;;;;;;5.30;3.70;;;15.40;86.80;;;;;;5112248;28;20051;-83
2023/08/26 01:24:59;;;;;;;4.97;3.65;;;15.30;86.90;;;;;;5095034;28;20047;-82
2023/08/26 01:27:25;;;;;;;13.85;4.35;;;15.30;87.00;;;;;;5095324;28;20051;-82
2023/08/26 01:29:51;;;;;;;7.20;4.10;;;15.30;87.10;;;;;;5074136;28;20488;-81
2023/08/26 01:32:32;;;;;;;5.18;3.72;;;15.20;87.30;;;;;;5045388;28;20131;-83
2023/08/26 01:34:59;;;;;;;5.60;3.55;;;15.20;87.30;;;;;;5079163;28;20384;-83
2023/08/26 01:37:27;;;;;;;4.63;3.70;;;15.20;87.40;;;;;;5078839;28;20492;-81
2023/08/26 01:39:57;;;;;;;8.57;3.90;;;15.10;87.40;;;;;;5095515;28;20040;-83
2023/08/26 01:42:24;;;;;;;7.50;3.70;;;15.10;87.40;;;;;;5062592;28;20036;-82
2023/08/26 01:44:51;;;;;;;6.43;3.70;;;15.10;87.40;;;;;;5095869;28;20031;-82
2023/08/26 01:47:17;;;;;;;6.45;3.88;;;15.00;87.50;;;;;;5091325;28;20123;-82
2023/08/26 01:49:46;;;;;;;4.22;3.60;;;14.90;87.60;;;;;;5078512;28;20040;-82
2023/08/26 01:52:11;;;;;;;6.80;4.28;;;14.90;87.50;;;;;;5062278;28;20066;-82
2023/08/26 01:54:37;;;;;;;6.40;4.10;;;14.90;87.50;;;;;;5078563;28;20039;-83
2023/08/26 01:57:03;;;;;;;7.65;4.28;;;14.90;87.60;;;;;;5095384;28;20055;-83
2023/08/26 01:59:29;;;;;;;5.13;3.50;;;14.90;87.60;;;;;;5078042;28;20143;-84
2023/08/26 02:01:54;;;;;;;4.13;3.28;;;14.90;87.70;;;;;;5046113;28;20069;-81
2023/08/26 02:04:22;;;;;;;8.60;3.42;;;14.80;87.60;;;;;;5065149;28;20403;-83
2023/08/26 02:06:48;;;;;;;5.57;3.80;;;14.80;87.40;;;;;;5115715;28;20393;-84
2023/08/26 02:09:14;;;;;;;3.92;3.50;;;14.80;87.50;;;;;;5115593;28;20243;-81
2023/08/26 02:11:40;;;;;;;6.45;3.78;;;14.80;87.50;;;;;;5081604;28;20088;-81
2023/08/26 02:14:05;;;;;;;7.50;3.70;;;14.70;87.50;;;;;;5081888;28;20126;-83
2023/08/26 02:16:31;;;;;;;6.82;4.00;;;14.70;87.60;;;;;;5064911;28;20498;-84
2023/08/26 02:18:57;;;;;;;5.70;4.07;;;14.60;87.50;;;;;;5098649;28;20126;-82
2023/08/26 02:21:22;;;;;;;6.35;3.90;;;14.50;87.70;;;;;;5081368;28;20042;-82
2023/08/26 02:23:48;;;;;;;7.07;4.05;;;14.50;87.60;;;;;;5064851;28;20035;-83
2023/08/26 02:26:14;;;;;;;4.90;3.30;;;14.40;87.80;;;;;;5098418;28;20071;-84
2023/08/26 02:28:39;;;;;;;4.38;3.63;;;14.30;87.80;;;;;;5081297;28;20050;-82
2023/08/26 02:31:07;;;;;;;6.07;3.90;;;14.30;87.90;;;;;;5085577;28;20036;-82
2023/08/26 02:33:32;;;;;;;5.32;4.00;;;14.30;87.90;;;;;;5094637;28;20098;-81
2023/08/26 02:35:58;;;;;;;4.97;4.00;;;14.30;87.90;;;;;;5060972;28;20036;-82
2023/08/26 02:38:25;;;;;;;5.43;3.80;;;14.20;88.00;;;;;;5060906;28;20036;-81
2023/08/26 02:40:54;;;;;;;5.30;4.05;;;14.20;88.10;;;;;;5077644;28;20040;-81
2023/08/26 02:43:21;;;;;;;7.45;4.57;;;14.30;88.20;;;;;;5076959;28;20028;-82
2023/08/26 02:45:54;;;;;;;7.25;4.28;;;14.30;88.20;;;;;;5097340;28;20085;-83
2023/08/26 02:48:21;;;;;;;4.47;3.90;;;14.20;88.40;;;;;;5077832;28;20036;-82
2023/08/26 02:50:47;;;;;;;6.40;4.80;;;14.20;88.40;;;;;;5077659;28;20399;-84
2023/08/26 02:53:13;;;;;;;7.05;4.35;;;14.20;88.40;;;;;;5094217;28;20215;-83
2023/08/26 02:55:39;;;;;;;7.22;4.57;;;14.10;88.40;;;;;;5077340;28;20051;-84
2023/08/26 02:58:05;;;;;;;6.60;5.10;;;14.10;88.40;;;;;;5077257;28;20047;-82
2023/08/26 03:00:33;;;;;;;4.85;4.43;;;14.00;88.50;;;;;;5077154;28;20048;-82
2023/08/26 03:02:59;;;;;;;7.40;4.90;;;14.00;88.60;;;;;;5092835;28;20038;-84
2023/08/26 03:05:24;;;;;;;7.43;4.72;;;14.00;88.70;;;;;;5064189;28;20039;-82
2023/08/26 03:07:50;;;;;;;6.25;4.20;;;14.00;88.70;;;;;;5080807;28;20545;-84
2023/08/26 03:10:16;;;;;;;7.97;4.60;;;14.00;88.90;;;;;;5080491;28;20039;-82
2023/08/26 03:12:41;;;;;;;7.57;4.28;;;14.00;88.80;;;;;;5080861;28;20165;-83
2023/08/26 03:15:08;;;;;;;7.50;4.22;;;14.00;88.90;;;;;;5097327;28;20043;-83
2023/08/26 03:17:33;;;;;;;6.78;4.32;;;14.00;88.90;;;;;;5080639;28;20048;-82
2023/08/26 03:19:59;;;;;;;6.78;3.97;;;14.10;88.80;;;;;;5069671;28;20056;-83
2023/08/26 03:22:25;;;;;;;5.22;4.15;;;14.10;88.80;;;;;;5060400;28;20032;-83
2023/08/26 03:24:51;;;;;;;5.03;4.07;;;14.10;88.80;;;;;;5065255;28;20043;-82
2023/08/26 03:27:16;;;;;;;6.70;4.45;;;14.10;88.80;;;;;;5069795;28;20141;-81
2023/08/26 03:29:42;;;;;;;7.65;4.30;;;14.20;88.90;;;;;;5084781;28;20503;-83
2023/08/26 03:32:08;;;;;;;7.80;4.10;;;14.20;88.80;;;;;;5092718;28;20046;-84
2023/08/26 03:34:33;;;;;;;7.80;4.25;;;14.30;88.80;;;;;;5080593;28;20039;-84
2023/08/26 03:36:59;;;;;;;7.13;4.15;;;14.30;88.70;;;;;;5093366;28;20070;-81
2023/08/26 03:39:25;;;;;;;6.75;4.30;;;14.30;88.80;;;;;;5123244;28;20027;-83
2023/08/26 03:41:50;;;;;;;6.18;4.63;;;14.40;88.90;;;;;;5106625;28;20023;-84
2023/08/26 03:44:16;;;;;;;5.65;4.47;;;14.50;88.90;;;;;;5140463;28;20053;-82
2023/08/26 03:46:43;;;;;;;6.50;4.40;;;14.50;89.00;;;;;;5140243;27;20065;-82
2023/08/26 03:49:08;;;;;;;6.03;4.28;;;14.50;89.00;;;;;;5089790;28;20024;-83
2023/08/26 03:51:34;;;;;;;6.30;4.28;;;14.50;89.00;;;;;;5106186;28;20037;-83
2023/08/26 03:54:00;;;;;;;4.72;4.20;;;14.50;89.00;;;;;;5105269;28;20031;-83
2023/08/26 03:56:25;;;;;;;6.50;4.43;;;14.40;89.10;;;;;;5062716;28;20048;-81
2023/08/26 03:58:56;;;;;;;5.18;4.28;;;14.40;89.10;;;;;;5043502;28;20160;-84
2023/08/26 04:01:22;;;;;;;6.40;4.28;;;14.40;89.20;;;;;;5093536;28;20039;-83
2023/08/26 04:03:51;;;;;;;5.32;4.20;;;14.40;89.30;;;;;;5080169;28;20399;-85
2023/08/26 04:06:17;;;;;;;6.95;4.18;;;14.40;89.20;;;;;;5082367;28;20127;-82
2023/08/26 04:08:44;;;;;;;8.65;4.28;;;14.40;89.30;;;;;;5062681;28;20032;-83
2023/08/26 04:11:10;;;;;;;8.00;4.35;;;14.40;89.40;;;;;;5076931;28;20073;-83
2023/08/26 04:13:35;;;;;;;7.63;4.47;;;14.40;89.50;;;;;;5075744;28;20036;-83
2023/08/26 04:16:08;;;;;;;7.18;4.07;;;14.40;89.40;;;;;;5152099;27;20386;-82
2023/08/26 04:18:34;;;;;;;8.43;4.07;;;14.40;89.70;;;;;;5116765;27;20159;-84
2023/08/26 04:20:59;;;;;;;8.43;4.13;;;14.50;89.70;;;;;;5116385;27;20555;-84
2023/08/26 04:23:25;;;;;;;4.85;4.32;;;14.50;89.90;;;;;;5150952;27;20118;-83
2023/08/26 04:25:54;;;;;;;8.45;4.40;;;14.50;89.90;;;;;;5116295;27;20560;-82
2023/08/26 04:28:20;;;;;;;4.65;4.03;;;14.50;89.80;;;;;;5112446;28;20441;-83
2023/08/26 04:30:45;;;;;;;4.43;3.85;;;14.50;89.80;;;;;;5129377;27;20039;-83
2023/08/26 04:33:11;;;;;;;5.40;4.00;;;14.50;89.90;;;;;;5129379;27;20047;-83
2023/08/26 04:35:37;;;;;;;6.45;4.03;;;14.50;89.80;;;;;;5111915;28;20039;-84
2023/08/26 04:38:03;;;;;;;4.90;3.90;;;14.50;89.80;;;;;;5129499;27;20073;-84
2023/08/26 04:40:29;;;;;;;4.40;3.97;;;14.50;89.90;;;;;;5129539;28;20071;-84
2023/08/26 04:42:56;;;;;;;4.50;3.70;;;14.50;89.90;;;;;;5129524;28;20039;-82
2023/08/26 04:45:22;;;;;;;5.93;4.20;;;14.50;89.90;;;;;;5140196;27;20035;-83
2023/08/26 04:47:49;;;;;;;9.75;3.90;;;14.50;89.80;;;;;;5116178;27;20031;-83
2023/08/26 04:50:14;;;;;;;5.85;4.45;;;14.50;89.90;;;;;;5133101;27;20042;-84
2023/08/26 04:52:41;;;;;;;7.65;4.00;;;14.50;89.90;;;;;;5133036;27;20051;-81
2023/08/26 04:55:07;;;;;;;4.97;4.18;;;14.50;89.90;;;;;;5115613;27;20035;-82
2023/08/26 04:57:33;;;;;;;5.53;3.60;;;14.50;89.90;;;;;;5115718;27;20539;-83
2023/08/26 04:59:59;;;;;;;5.30;4.10;;;14.50;89.90;;;;;;5115661;27;20057;-83
2023/08/26 05:02:25;;;;;;;4.85;3.90;;;14.50;90.10;;;;;;5132816;27;20034;-83
2023/08/26 05:04:51;;;;;;;7.20;3.92;;;14.50;90.10;;;;;;5115501;27;20046;-82
2023/08/26 05:07:17;;;;;;;5.85;4.28;;;14.50;90.20;;;;;;5132500;27;20043;-83
2023/08/26 05:09:43;;;;;;;7.82;4.75;;;14.50;90.20;;;;;;5098564;27;20041;-84
2023/08/26 05:12:09;;;;;;;6.95;3.80;;;14.50;90.10;;;;;;5110929;28;20065;-82
2023/08/26 05:14:34;;;;;;;6.15;4.15;;;14.50;90.10;;;;;;5111533;28;20074;-81
2023/08/26 05:17:00;;;;;;;7.32;4.22;;;14.40;90.30;;;;;;5095200;28;20050;-82
2023/08/26 05:19:26;;;;;;;8.75;4.85;;;14.50;90.40;;;;;;5111707;28;20471;-82
2023/08/26 05:21:51;;;;;;;10.07;5.20;;;14.50;91.70;;;;;;5111827;28;20078;-81
2023/08/26 05:24:17;;;;;;;7.53;5.18;;;14.50;91.80;;;;;;5111932;28;20047;-80
2023/08/26 05:26:43;;;;;;;9.23;5.75;;;14.60;91.90;;;;;;5102595;27;20546;-80
2023/08/26 05:29:09;;;;;;;7.85;5.32;;;14.60;91.80;;;;;;5084866;27;20043;-84
2023/08/26 05:31:35;;;;;;;7.97;5.70;;;14.60;91.90;;;;;;5118461;27;20126;-80
2023/08/26 05:34:01;;;;;;;8.27;4.80;;;14.70;92.10;;;;;;5118496;27;20142;-84
2023/08/26 05:36:27;;;;;;;8.85;5.10;;;14.80;92.00;;;;;;5084735;27;20518;-80
2023/08/26 05:38:53;;;;;;;6.18;5.38;;;14.80;92.00;;;;;;5084696;27;20031;-82
2023/08/26 05:41:18;;;;;;;7.03;5.07;;;14.90;91.50;;;;;;5101407;27;20483;-82
2023/08/26 05:43:44;;;;;;;8.80;5.35;;;14.90;91.60;;;;;;5116849;27;20043;-82
2023/08/26 05:46:10;;;;;;;6.97;5.60;;;15.00;91.40;;;;;;5101572;27;20031;-81
2023/08/26 05:48:35;;;;;;;8.95;5.28;;;15.00;91.40;;;;;;5101466;27;20077;-81
2023/08/26 05:51:02;;;;;;;7.43;5.85;;;15.00;91.40;;;;;;5118285;27;20035;-82
2023/08/26 05:53:28;;;;;;;9.27;5.82;;;15.00;91.30;;;;;;5135319;27;20483;-81
2023/08/26 05:55:54;;;;;;;8.20;5.85;;;15.00;91.40;;;;;;5084039;27;20043;-83
2023/08/26 05:58:20;;;;;;;7.28;5.88;;;15.10;91.20;;;;;;5100976;27;20050;-83
2023/08/26 06:00:48;;;;;;;5.20;4.55;;;15.10;91.20;;;;;;5116502;27;20031;-79
2023/08/26 06:03:13;;;;;;;8.20;4.18;;;15.10;90.90;;;;;;5135177;27;20039;-81
2023/08/26 06:05:39;;;;;;;6.97;4.60;;;15.20;90.70;;;;;;5118048;27;20075;-79
2023/08/26 06:08:06;;;;;;;5.63;4.22;;;15.30;90.50;;;;;;5117837;27;20043;-80
2023/08/26 06:10:31;;;;;;;7.30;4.55;;;15.30;90.30;;;;;;5117694;27;20039;-82
2023/08/26 06:12:57;;;;;;;6.45;4.32;;;15.30;90.20;;;;;;5100782;27;20039;-81
2023/08/26 06:15:23;;;;;;;5.57;4.35;;;15.30;90.10;;;;;;5117346;27;20055;-83
2023/08/26 06:17:49;;;;;;;12.63;5.72;;;15.40;90.10;;;;;;5116474;27;20079;-84
2023/08/26 06:20:15;;;;;;;4.72;4.18;;;15.40;90.00;;;;;;5083894;27;20027;-83
2023/08/26 06:22:42;;;;;;;5.38;4.32;;;15.50;89.90;;;;;;5117431;27;20487;-81
2023/08/26 06:25:08;;;;;;;7.75;4.55;;;15.50;89.90;;;;;;5117669;27;20472;-80
2023/08/26 06:27:34;;;;;;;7.47;5.40;;;15.50;89.90;;;;;;5100497;27;20038;-82
2023/08/26 06:30:03;;;;;;;9.93;6.25;;;15.60;89.80;;;;;;5100593;27;20041;-79
2023/08/26 06:32:29;;;;;;;8.10;5.75;;;15.60;89.80;;;;;;5116727;27;20399;-81
2023/08/26 06:34:54;;;;;;;8.00;6.13;;;15.60;89.80;;;;;;5100108;27;20046;-79
2023/08/26 06:37:20;;;;;;;8.63;5.22;;;15.60;89.80;;;;;;5116417;28;20042;-82
2023/08/26 06:39:47;;;;;;;8.93;6.63;;;15.70;89.80;;;;;;5099981;27;20035;-79
2023/08/26 06:42:12;;;;;;;9.10;6.35;;;15.70;89.90;;;;;;5083677;27;20175;-82
2023/08/26 06:44:38;;;;;;;8.75;7.63;;;15.70;89.90;;;;;;5116844;27;20557;-80
2023/08/26 06:47:08;;;;;;;14.02;7.30;;;15.70;89.90;;;;;;5116863;27;20037;-80
2023/08/26 06:49:34;;;;;;;11.77;8.70;;;15.80;89.90;;;;;;5133896;27;20127;-80
2023/08/26 06:51:59;;;;;;;13.32;9.20;;;15.80;90.50;;;;;;5116831;27;20070;-80
2023/08/26 06:54:25;;;;;;;10.70;8.98;;;15.80;90.70;;;;;;5116553;27;20177;-79
2023/08/26 06:56:51;;;;;;;14.00;10.05;;;15.90;90.60;;;;;;5116903;27;20042;-80
2023/08/26 06:59:16;;;;;;;12.75;9.55;;;16.00;90.60;;;;;;5082820;27;20071;-80
2023/08/26 07:01:42;;;;;;;12.85;10.25;;;16.00;90.80;;;;;;5133927;27;20127;-81
2023/08/26 07:04:08;;;;;;;13.35;10.70;;;16.20;91.40;;;;;;5133517;27;20100;-80
2023/08/26 07:06:35;;;;;;;14.65;12.05;;;16.30;91.40;;;;;;5133753;27;20039;-79
2023/08/26 07:09:01;;;;;;;13.85;11.73;;;16.40;91.50;;;;;;5099673;27;20043;-79
2023/08/26 07:11:27;;;;;;;18.35;14.60;;;16.50;91.40;;;;;;5099572;27;20357;-80
2023/08/26 07:13:53;;;;;;;16.00;10.50;;;16.70;91.50;;;;;;5089355;28;20126;-79
2023/08/26 07:16:19;;;;;;;16.13;12.45;;;16.80;90.70;;;;;;5095985;28;20112;-80
2023/08/26 07:18:45;;;;;;;14.50;12.38;;;17.00;91.10;;;;;;5113044;28;20372;-82
2023/08/26 07:21:11;;;;;;;16.67;13.85;;;17.10;91.00;;;;;;5079286;28;20039;-80
2023/08/26 07:23:38;;;;;;;17.42;12.40;;;17.20;90.50;;;;;;5079102;28;20032;-82
2023/08/26 07:26:03;;;;;;;16.95;13.75;;;17.40;90.60;;;;;;5079305;28;20043;-80
2023/08/26 07:28:29;;;;;;;17.98;12.13;;;17.50;90.40;;;;;;5113015;28;20032;-81
2023/08/26 07:31:02;;;;;;;16.02;12.75;;;17.60;90.10;;;;;;5130347;27;20104;-81
2023/08/26 07:33:27;;;;;;;17.63;11.57;;;17.80;89.50;;;;;;5116397;27;20043;-80
2023/08/26 07:36:01;;;;;;;12.38;9.85;;;18.00;88.50;;;;;;5132943;27;20035;-79
2023/08/26 07:38:27;;;;;;;11.95;10.10;;;18.20;87.80;;;;;;5133151;27;20043;-81
2023/08/26 07:40:52;;;;;;;14.02;9.32;;;18.40;87.10;;;;;;5082162;27;20398;-82
2023/08/26 07:43:18;;;;;;;10.23;8.98;;;18.50;85.40;;;;;;5082303;27;20047;-82
2023/08/26 07:45:44;;;;;;;7.55;6.72;;;18.50;83.80;;;;;;5114632;28;20436;-80
2023/08/26 07:48:09;;;;;;;9.63;7.00;;;18.40;82.70;;;;;;5116017;27;20050;-80
2023/08/26 07:50:36;;;;;;;9.00;6.47;;;18.40;82.00;;;;;;5098920;27;20050;-81
2023/08/26 07:53:01;;;;;;;9.98;7.85;;;18.40;82.10;;;;;;5133271;27;20457;-81
2023/08/26 07:55:27;;;;;;;10.35;8.15;;;18.40;82.30;;;;;;5098859;27;20122;-82
2023/08/26 07:57:53;;;;;;;11.68;7.38;;;18.40;83.00;;;;;;5115819;27;20126;-80
2023/08/26 08:00:19;;;;;;;12.02;7.05;;;18.50;83.00;;;;;;5082083;27;20031;-82
2023/08/26 08:02:44;;;;;;;10.02;5.85;;;18.60;83.20;;;;;;5078059;28;20138;-82
2023/08/26 08:05:10;;;;;;;6.50;5.15;;;18.70;83.30;;;;;;5095230;28;20055;-81
2023/08/26 08:07:36;;;;;;;6.72;4.50;;;18.60;82.90;;;;;;5095428;28;20396;-81
2023/08/26 08:10:01;;;;;;;4.45;3.42;;;18.60;83.30;;;;;;5095563;28;20039;-80
2023/08/26 08:12:27;;;;;;;4.18;3.03;;;18.60;81.70;;;;;;5095319;28;20043;-83
2023/08/26 08:14:53;;;;;;;4.80;2.30;;;18.60;80.80;;;;;;5078151;28;20051;-81
2023/08/26 08:17:18;;;;;;;4.90;2.35;;;18.50;80.50;;;;;;5112147;28;20537;-81
2023/08/26 08:19:45;;;;;;;3.20;1.75;;;18.50;81.20;;;;;;5095126;28;20067;-78
2023/08/26 08:22:16;;;;;;;4.22;1.60;;;18.60;80.60;;;;;;5095333;28;20035;-80
2023/08/26 08:24:43;;;;;;;2.75;1.42;;;18.50;80.60;;;;;;5095891;28;20043;-81
2023/08/26 08:27:09;;;;;;;2.15;1.35;;;18.40;81.20;;;;;;5112165;28;20036;-80
2023/08/26 08:29:35;;;;;;;1.83;1.30;;;18.30;81.50;;;;;;5095001;28;20396;-81
2023/08/26 08:32:02;;;;;;;4.20;1.40;;;18.10;81.20;;;;;;5078636;28;20040;-81
2023/08/26 08:34:27;;;;;;;3.00;1.48;;;18.10;80.90;;;;;;5111919;28;20487;-82
2023/08/26 08:36:55;;;;;;;2.40;1.20;;;18.20;80.30;;;;;;5061847;28;20028;-82
2023/08/26 08:39:21;;;;;;;2.05;1.40;;;18.40;79.70;;;;;;5095588;28;20066;-82
2023/08/26 08:41:51;;;;;;;3.88;1.40;;;18.50;79.40;;;;;;5078291;28;20044;-82
2023/08/26 08:44:18;;;;;;;3.15;1.55;;;18.60;78.30;;;;;;5080289;28;20036;-82
2023/08/26 08:46:45;;;;;;;3.75;1.60;;;18.80;77.70;;;;;;5095074;28;20551;-85
2023/08/26 08:49:12;;;;;;;4.50;1.30;;;18.90;76.30;;;;;;5112064;28;20122;-85
2023/08/26 08:51:39;;;;;;;6.80;2.30;;;19.00;75.90;;;;;;5078061;28;20040;-84
2023/08/26 08:54:06;;;;;;;2.20;1.33;;;19.00;74.80;;;;;;5111565;28;20502;-82
2023/08/26 08:56:32;;;;;;;1.67;0.98;;;19.10;74.90;;;;;;5111721;28;20040;-80
2023/08/26 08:59:00;;;;;;;1.73;1.10;;;19.10;75.30;;;;;;5078323;28;20387;-83
2023/08/26 09:01:26;;;;;;;4.43;1.70;;;19.10;75.60;;;;;;5105688;27;20150;-81
2023/08/26 09:03:51;;;;;;;2.00;1.58;;;19.10;75.60;;;;;;5102179;27;20512;-82
2023/08/26 09:06:19;;;;;;;5.35;2.72;;;19.10;76.00;;;;;;5136153;27;20042;-84
2023/08/26 09:08:45;;;;;;;4.38;1.65;;;19.10;76.90;;;;;;5118910;27;20042;-81
2023/08/26 09:11:14;;;;;;;3.42;1.50;;;19.10;77.60;;;;;;5136337;27;20058;-82
2023/08/26 09:13:40;;;;;;;2.92;2.05;;;19.00;77.80;;;;;;5118752;27;20522;-83
2023/08/26 09:16:06;;;;;;;3.45;1.70;;;19.00;78.10;;;;;;5101587;27;20051;-81
2023/08/26 09:18:39;;;;;;;3.60;1.95;;;19.00;79.00;;;;;;5134760;27;20464;-81
2023/08/26 09:21:09;;;;;;;3.22;1.60;;;18.80;79.00;;;;;;5102157;27;20081;-83
2023/08/26 09:23:45;;;;;;;6.78;2.67;;;18.70;78.50;;;;;;5099746;27;20487;-81
2023/08/26 09:26:11;;;;;;;4.97;2.40;;;18.60;78.80;;;;;;5081257;28;20126;-84
2023/08/26 09:28:37;;;;;;;6.75;2.30;;;18.50;79.20;;;;;;5098126;28;20483;-84
2023/08/26 09:31:07;;;;;;;4.53;2.70;;;18.40;79.90;;;;;;5098092;28;20035;-83
2023/08/26 09:33:34;;;;;;;3.40;2.45;;;18.20;80.80;;;;;;5098137;28;20126;-81
2023/08/26 09:36:00;;;;;;;5.72;2.97;;;18.30;80.40;;;;;;5115074;28;20075;-84
2023/08/26 09:38:26;;;;;;;4.80;2.38;;;18.50;80.40;;;;;;5098071;28;20455;-82
2023/08/26 09:41:00;;;;;;;5.15;2.92;;;18.50;80.10;;;;;;5098272;28;20043;-84
2023/08/26 09:43:26;;;;;;;;;;;18.30;79.80;;;;;;5098389;28;20043;-82
2023/08/26 09:45:56;;;;;;;6.10;3.20;;;18.20;80.40;;;;;;5081217;28;19915;-81
2023/08/26 09:48:22;;;;;;;7.25;4.30;;;18.10;80.70;;;;;;5097958;28;20082;-83
2023/08/26 09:50:48;;;;;;;6.47;5.70;;;18.00;81.20;;;;;;5114829;28;20054;-83
2023/08/26 09:53:29;;;;;;;8.10;5.70;;;18.00;82.40;;;;;;5097699;28;20039;-83
2023/08/26 09:55:57;;;;;;;9.32;6.57;;;17.80;83.20;;;;;;5114469;28;20164;-83
2023/08/26 09:58:23;;;;;;;9.25;7.43;;;17.80;83.90;;;;;;5098291;28;20043;-83
2023/08/26 10:00:50;;;;;;;12.38;8.23;;;17.80;84.50;;;;;;5118235;27;20156;-87
2023/08/26 10:03:21;;;;;;;11.43;8.93;;;17.90;84.40;;;;;;5135203;27;20043;-84
2023/08/26 10:05:50;;;;;;;13.25;9.45;;;17.90;85.00;;;;;;5135254;27;20122;-80
2023/08/26 10:08:17;;;;;;;12.60;9.70;;;17.90;86.10;;;;;;5134806;27;20043;-82
2023/08/26 10:10:50;;;;;;;10.02;8.73;;;17.90;86.00;;;;;;5118364;27;20398;-80
2023/08/26 10:13:22;;;;;;;8.00;5.63;;;18.00;86.00;;;;;;5118285;27;20095;-83
2023/08/26 10:15:51;;;;;;;5.10;4.20;;;18.00;84.80;;;;;;5117088;27;20062;-83
2023/08/26 10:18:44;;;;;;;5.40;3.63;;;18.10;83.60;;;;;;5133749;27;20069;-84
2023/08/26 10:21:13;;;;;;;3.03;2.00;;;18.20;83.50;;;;;;5121632;27;20054;-81
2023/08/26 10:23:39;;;;;;;3.30;1.95;;;18.00;81.60;;;;;;5117358;27;20039;-80
2023/08/26 10:26:07;;;;;;;4.43;1.88;;;18.00;80.90;;;;;;5100489;27;20039;-80
2023/08/26 10:28:34;;;;;;;3.08;2.08;;;18.00;80.90;;;;;;5100609;27;20050;-81
2023/08/26 10:31:00;;;;;;;1.77;1.52;;;18.00;79.90;;;;;;5117414;27;20098;-80
2023/08/26 10:33:26;;;;;;;3.72;2.00;;;18.20;79.60;;;;;;5117401;27;20093;-81
2023/08/26 10:35:59;;;;;;;2.83;2.00;;;18.40;79.50;;;;;;5132961;27;20062;-85
2023/08/26 10:38:26;;;;;;;2.83;1.70;;;18.70;78.70;;;;;;5117491;27;20409;-82
2023/08/26 10:41:09;;;;;;;3.28;1.33;;;19.10;78.50;;;;;;5134472;27;20126;-84
2023/08/26 10:43:34;;;;;;;2.30;1.25;;;19.00;74.90;;;;;;5117352;27;20057;-83
2023/08/26 10:46:01;;;;;;;1.70;1.27;;;19.10;75.70;;;;;;5134227;27;20039;-81
2023/08/26 10:48:27;;;;;;;3.53;1.90;;;19.20;75.20;;;;;;5117283;27;20043;-79
2023/08/26 10:51:00;;;;;;;3.65;1.75;;;19.40;75.60;;;;;;5117782;27;20116;-80
2023/08/26 10:53:26;;;;;;;3.30;1.33;;;19.70;74.40;;;;;;5116934;27;20043;-79
2023/08/26 10:55:53;;;;;;;4.88;2.15;;;19.90;74.00;;;;;;5133870;27;20043;-81
2023/08/26 10:58:20;;;;;;;2.70;2.30;;;19.80;74.10;;;;;;5134123;27;20401;-80
2023/08/26 11:00:47;;;;;;;7.05;2.28;;;19.80;73.90;;;;;;5133942;27;20031;-83
2023/08/26 11:03:20;;;;;;;2.28;1.45;;;19.70;74.10;;;;;;5116167;27;20443;-79
2023/08/26 11:05:59;;;;;;;3.35;1.33;;;20.00;74.80;;;;;;5133844;27;20118;-82
2023/08/26 11:08:25;;;;;;;2.97;1.58;;;20.10;71.40;;;;;;5134121;27;20297;-80
2023/08/26 11:10:51;;;;;;;4.30;1.75;;;20.20;72.40;;;;;;5133666;27;20610;-81
2023/08/26 11:13:20;;;;;;;3.25;1.60;;;20.20;72.00;;;;;;5131907;27;20043;-78
2023/08/26 11:15:46;;;;;;;6.18;2.03;;;20.00;72.10;;;;;;5132324;27;20050;-78
2023/08/26 11:18:12;;;;;;;3.55;1.73;;;20.00;72.90;;;;;;5132554;27;20035;-81
2023/08/26 11:20:39;;;;;;;16.45;3.15;;;20.00;73.50;;;;;;5098538;27;20039;-79
2023/08/26 11:23:06;;;;;;;3.17;2.13;;;19.90;74.10;;;;;;5115465;27;20035;-81
2023/08/26 11:25:36;;;;;;;5.95;1.67;;;20.00;73.80;;;;;;5132059;27;20039;-80
2023/08/26 11:28:08;;;;;;;3.40;1.50;;;20.00;72.70;;;;;;5114645;27;20046;-80
2023/08/26 11:30:39;;;;;;;2.25;1.60;;;20.10;71.80;;;;;;5133632;27;20039;-81
2023/08/26 11:33:17;;;;;;;3.95;1.90;;;20.10;71.90;;;;;;5132039;27;20057;-79
2023/08/26 11:35:46;;;;;;;2.42;1.30;;;20.00;73.20;;;;;;5115980;27;20036;-81
2023/08/26 11:38:13;;;;;;;5.50;1.58;;;19.90;72.20;;;;;;5116044;27;20043;-81
2023/08/26 11:40:40;;;;;;;5.15;2.25;;;19.70;71.50;;;;;;5133174;27;20035;-79
2023/08/26 11:43:11;;;;;;;3.15;2.33;;;19.70;72.40;;;;;;5133067;27;20043;-77
2023/08/26 11:45:41;;;;;;;3.17;1.20;;;19.70;72.90;;;;;;5132952;27;20122;-78
2023/08/26 11:48:12;;;;;;;4.25;1.67;;;19.50;73.10;;;;;;5133349;27;20368;-79
2023/08/26 11:50:41;;;;;;;3.83;1.25;;;19.50;73.30;;;;;;5133306;27;20038;-80
2023/08/26 11:53:07;;;;;;;8.25;1.13;;;19.50;72.90;;;;;;5132016;27;20117;-79
2023/08/26 11:55:35;;;;;;;1.95;1.10;;;19.30;72.30;;;;;;5132813;27;20126;-78
2023/08/26 11:58:02;;;;;;;3.40;1.02;;;19.30;72.80;;;;;;5115926;27;20495;-81
2023/08/26 12:00:28;;;;;;;2.85;1.20;;;19.30;72.60;;;;;;5082393;27;20077;-81
2023/08/26 12:03:04;;;;;;;3.38;1.50;;;19.40;72.90;;;;;;5133098;27;20542;-84
2023/08/26 12:05:48;;;;;;;7.50;1.42;;;19.40;73.10;;;;;;5133048;27;20254;-80
2023/08/26 12:08:19;;;;;;;4.60;1.10;;;19.30;73.30;;;;;;5132737;27;20096;-81
2023/08/26 12:10:53;;;;;;;2.20;0.90;;;19.30;73.70;;;;;;5114640;28;20081;-80
2023/08/26 12:13:19;;;;;;;3.75;1.48;;;19.10;74.40;;;;;;5115547;28;20107;-79
2023/08/26 12:15:45;;;;;;;2.85;1.10;;;19.10;74.70;;;;;;5132419;28;20062;-80
2023/08/26 12:18:13;;;;;;;4.30;1.73;;;19.10;75.20;;;;;;5132892;28;20394;-80
2023/08/26 12:20:44;;;;;;;2.42;1.35;;;19.40;74.80;;;;;;5115716;28;20047;-82
2023/08/26 12:23:10;;;;;;;2.72;1.27;;;19.40;74.60;;;;;;5115643;28;20502;-79
2023/08/26 12:25:41;;;;;;;3.67;1.40;;;19.50;74.00;;;;;;5132247;28;20043;-76
2023/08/26 12:37:13;;;;;;;2.90;1.42;;;20.00;72.90;;;;;;5099439;28;20039;-75
2023/08/26 12:40:46;;;;;;;;;;;;;;;;;;;;;
2023/08/26 12:52:29;;;;;;;3.42;1.73;;;19.60;74.00;;;;;;5032326;28;20060;-75
2023/08/26 12:59:57;;;;;;;;;;;;;;;;;;;;;
2023/08/26 13:11:32;;;;;;;1.92;0.93;;;20.50;70.80;;;;;;4744975;30;20067;-74
2023/08/26 13:15:43;;;;;;;;;;;;;;;;;;;;;
2023/08/26 13:31:06;;;;;;;;;;;;;;;;;;;;;
2023/08/26 13:34:47;;;;;;;2.25;0.82;;;22.00;63.70;;;;;;4887862;29;20066;-75
2023/08/26 13:37:58;;;;;;;0.95;0.40;;;21.90;63.80;;;;;;4886811;29;20062;-71
2023/08/26 13:41:30;;;;;;;0.77;0.60;;;22.00;63.20;;;;;;4905299;29;20056;-73